This is the latest recevied weather packets stored in our database for station/object JH1LWU-13. If no packets are shown the sender has not sent any weather packets the latest 10 day(s).
| Time | Temp. | Humidity | Pressure | Rain* | Wind** | Luminosity | Snow |
|---|---|---|---|---|---|---|---|
| 1777654908 | 13.33° C | 64% | 990 hPa | 0 mm | - | - | - |
| 1777653107 | 12.78° C | 67% | 990 hPa | 0 mm | - | - | - |
| 1777651306 | 12.78° C | 66% | 992 hPa | 0 mm | - | - | - |
| 1777649505 | 12.78° C | 66% | 992 hPa | 0 mm | - | - | - |
| 1777647704 | 13.89° C | 65% | 992 hPa | 0 mm | - | - | - |
| 1777645903 | 13.89° C | 67% | 991 hPa | 0 mm | - | - | - |
| 1777644102 | 14.44° C | 65% | 993 hPa | 0 mm | - | - | - |
| 1777642301 | 14.44° C | 65% | 992 hPa | 0 mm | - | - | - |
| 1777640500 | 14.44° C | 67% | 991 hPa | 0 mm | - | - | - |
| 1777638699 | 15° C | 67% | 991 hPa | 0 mm | - | - | - |
| 1777636898 | 16.11° C | 63% | 989 hPa | 0 mm | - | - | - |
| 1777635097 | 17.22° C | 51% | 991 hPa | 0 mm | - | - | - |
| 1777633296 | 17.78° C | 46% | 987 hPa | 0 mm | - | - | - |
| 1777631495 | 17.78° C | 50% | 987 hPa | 0 mm | - | - | - |
| 1777629694 | 17.78° C | 63% | 987 hPa | 0 mm | - | - | - |
| 1777627893 | 17.78° C | 68% | 988 hPa | 0 mm | - | - | - |
| 1777626092 | 18.33° C | 71% | 988 hPa | 0 mm | - | - | - |
| 1777624291 | 18.89° C | 74% | 989 hPa | 0 mm | - | - | - |
| 1777622490 | 18.89° C | 75% | 989 hPa | 0 mm | - | - | - |
| 1777620689 | 18.89° C | 74% | 989 hPa | 0 mm | - | - | - |
| 1777618888 | 18.33° C | 75% | 991 hPa | 0 mm | - | - | - |
| 1777617087 | 18.33° C | 73% | 991 hPa | 0 mm | - | - | - |
| 1777615286 | 18.89° C | 73% | 992 hPa | 0 mm | - | - | - |
| 1777613485 | 17.78° C | 76% | 993 hPa | 0 mm | - | - | - |
| 1777611684 | 16.67° C | 79% | 992 hPa | 0 mm | - | - | - |
* Rain latest hour (hover to see other rain measurements)
** Current wind speed in m/s (hover to see current wind gust speed)